createdAt,value
2017-10-02T00:02:04.482Z,79.70
2017-10-02T00:04:32.039Z,79.80
2017-10-02T00:06:59.615Z,79.80
2017-10-02T00:09:27.183Z,79.80
2017-10-02T00:11:54.759Z,79.40
2017-10-02T00:14:23.083Z,79.40
2017-10-02T00:16:50.624Z,79.50
2017-10-02T00:19:18.189Z,79.50
2017-10-02T00:21:45.766Z,79.20
2017-10-02T00:24:13.322Z,79.20
2017-10-02T00:26:40.887Z,79.20
2017-10-02T00:29:08.442Z,79.00
2017-10-02T00:31:35.986Z,78.60
2017-10-02T00:34:03.521Z,78.90
2017-10-02T00:36:31.079Z,79.10
2017-10-02T00:38:59.409Z,79.90
2017-10-02T00:41:26.953Z,79.90
2017-10-02T00:43:54.532Z,79.90
2017-10-02T00:46:22.092Z,79.60
2017-10-02T00:48:49.638Z,79.50
2017-10-02T00:51:17.220Z,79.50
2017-10-02T00:53:44.756Z,79.90
2017-10-02T00:56:12.314Z,79.90
2017-10-02T00:58:39.877Z,79.70
2017-10-02T01:01:07.449Z,79.30
2017-10-02T01:03:35.017Z,79.90
2017-10-02T01:06:02.557Z,80.20
2017-10-02T01:08:30.106Z,80.30
2017-10-02T01:10:57.650Z,80.40
2017-10-02T01:13:26.064Z,80.80
2017-10-02T01:15:53.620Z,81.20
2017-10-02T01:18:21.177Z,81.70
2017-10-02T01:20:48.732Z,81.70
2017-10-02T01:23:16.271Z,81.60
2017-10-02T01:25:43.809Z,82.20
2017-10-02T01:28:12.150Z,82.80
2017-10-02T01:30:39.726Z,82.80
2017-10-02T01:33:07.279Z,83.10
2017-10-02T01:35:34.821Z,83.00
2017-10-02T01:38:02.382Z,83.00
2017-10-02T01:40:29.920Z,83.30
2017-10-02T01:42:57.467Z,83.20
2017-10-02T01:45:25.040Z,83.30
2017-10-02T01:47:52.625Z,83.30
2017-10-02T01:50:20.170Z,83.60
2017-10-02T01:52:47.744Z,83.20
2017-10-02T01:55:15.336Z,82.40
2017-10-02T01:57:43.666Z,82.80
2017-10-02T02:00:11.226Z,82.80
2017-10-02T02:02:38.834Z,83.00
2017-10-02T02:05:07.160Z,83.20
2017-10-02T02:07:34.725Z,83.10
2017-10-02T02:10:02.287Z,83.50
2017-10-02T02:12:29.858Z,83.30
2017-10-02T02:14:57.404Z,83.40
2017-10-02T02:17:24.941Z,83.50
2017-10-02T02:19:52.498Z,83.20
2017-10-02T02:22:20.075Z,83.30
2017-10-02T02:24:47.638Z,83.20
2017-10-02T02:27:15.174Z,83.20
2017-10-02T02:29:42.739Z,83.10
2017-10-02T02:32:10.281Z,83.20
2017-10-02T02:34:38.617Z,82.90
2017-10-02T02:37:06.157Z,82.90
2017-10-02T02:39:33.697Z,83.00
2017-10-02T02:42:01.253Z,83.40
2017-10-02T02:44:28.822Z,83.60
2017-10-02T02:46:56.386Z,83.60
2017-10-02T02:49:23.917Z,84.20
2017-10-02T02:51:52.237Z,83.70
2017-10-02T02:54:19.787Z,83.60
2017-10-02T02:56:47.338Z,83.60
2017-10-02T02:59:14.902Z,83.80
2017-10-02T03:01:42.456Z,84.10
2017-10-02T03:04:09.988Z,84.10
2017-10-02T03:06:38.317Z,84.00
2017-10-02T03:09:05.861Z,84.00
2017-10-02T03:11:33.432Z,84.20
2017-10-02T03:14:00.980Z,84.30
2017-10-02T03:16:28.548Z,84.30
2017-10-02T03:18:56.105Z,84.30
2017-10-02T03:21:23.665Z,84.20
2017-10-02T03:23:51.238Z,84.10
2017-10-02T03:26:18.771Z,84.70
2017-10-02T03:28:46.322Z,84.00
2017-10-02T03:31:13.885Z,84.00
2017-10-02T03:33:41.436Z,83.90
2017-10-02T03:36:09.001Z,84.30
2017-10-02T03:38:36.560Z,83.40
2017-10-02T03:41:04.117Z,83.60
2017-10-02T03:43:31.657Z,84.40
2017-10-02T03:45:59.974Z,83.50
2017-10-02T03:48:27.522Z,83.50
2017-10-02T03:50:55.062Z,83.40
2017-10-02T03:53:23.385Z,83.70
2017-10-02T03:55:50.948Z,83.70
2017-10-02T03:58:18.537Z,84.30
2017-10-02T04:00:46.138Z,84.20
2017-10-02T04:03:13.750Z,84.20
2017-10-02T04:05:41.293Z,84.60
2017-10-02T04:08:08.857Z,85.30
2017-10-02T04:10:36.446Z,85.90
2017-10-02T04:13:03.996Z,85.50
2017-10-02T04:15:31.557Z,85.50
2017-10-02T04:17:59.117Z,85.90
2017-10-02T04:20:26.695Z,85.90
2017-10-02T04:22:55.002Z,85.90
2017-10-02T04:25:22.565Z,85.90
2017-10-02T04:27:50.102Z,85.90
2017-10-02T04:30:18.427Z,85.70
2017-10-02T04:32:45.981Z,85.70
2017-10-02T04:35:13.538Z,85.90
2017-10-02T04:37:41.076Z,85.90
2017-10-02T04:40:08.644Z,85.90
2017-10-02T04:42:36.184Z,85.80
2017-10-02T04:45:03.738Z,86.00
2017-10-02T04:47:31.302Z,86.00
2017-10-02T04:49:58.856Z,86.10
2017-10-02T04:52:27.188Z,85.80
2017-10-02T04:54:54.714Z,85.80
2017-10-02T04:57:22.277Z,85.90
2017-10-02T04:59:49.848Z,85.40
2017-10-02T05:02:17.419Z,85.30
2017-10-02T05:04:44.992Z,85.20
2017-10-02T05:07:12.550Z,85.30
2017-10-02T05:09:40.115Z,85.50
2017-10-02T05:12:07.657Z,85.60
2017-10-02T05:14:35.219Z,85.70
2017-10-02T05:17:02.766Z,85.80
2017-10-02T05:19:30.342Z,86.00
2017-10-02T05:21:57.909Z,85.90
2017-10-02T05:24:25.460Z,86.10
2017-10-02T05:26:53.018Z,86.10
2017-10-02T05:29:20.584Z,86.50
2017-10-02T05:31:48.171Z,86.70
2017-10-02T05:34:15.735Z,86.90
2017-10-02T05:36:44.086Z,88.00
2017-10-02T05:39:11.628Z,87.30
2017-10-02T05:41:39.186Z,87.00
2017-10-02T05:44:06.767Z,87.00
2017-10-02T05:46:34.325Z,87.10
2017-10-02T05:49:01.894Z,86.60
2017-10-02T05:51:29.480Z,86.70
2017-10-02T05:53:57.826Z,86.50
2017-10-02T05:56:25.372Z,86.30
2017-10-02T05:58:52.950Z,86.10
2017-10-02T06:01:20.519Z,86.50
2017-10-02T06:03:48.088Z,86.60
2017-10-02T06:06:15.663Z,86.30
2017-10-02T06:08:43.996Z,86.40
2017-10-02T06:11:11.555Z,86.40
2017-10-02T06:13:39.275Z,86.30
2017-10-02T06:16:06.818Z,86.40
2017-10-02T06:18:35.145Z,86.50
2017-10-02T06:21:02.704Z,86.40
2017-10-02T06:23:30.276Z,86.50
2017-10-02T06:25:57.834Z,86.70
2017-10-02T06:28:25.379Z,86.70
2017-10-02T06:30:52.939Z,86.90
2017-10-02T06:33:20.499Z,87.10
2017-10-02T06:35:48.072Z,87.30
2017-10-02T06:38:15.625Z,87.30
2017-10-02T06:40:43.197Z,87.50
2017-10-02T06:43:10.770Z,87.60
2017-10-02T06:45:38.325Z,87.40
2017-10-02T06:48:05.891Z,87.10
2017-10-02T06:50:33.450Z,86.60
2017-10-02T06:53:01.037Z,86.40
2017-10-02T06:55:29.346Z,86.10
2017-10-02T06:57:56.906Z,86.10
2017-10-02T07:00:24.461Z,85.80
2017-10-02T07:02:52.044Z,85.10
2017-10-02T07:05:19.587Z,86.30
2017-10-02T07:07:47.184Z,85.90
2017-10-02T07:10:14.767Z,85.40
2017-10-02T07:12:42.304Z,84.80
2017-10-02T07:15:09.887Z,84.00
2017-10-02T07:17:38.222Z,82.80
2017-10-02T07:20:05.806Z,82.80
2017-10-02T07:22:33.346Z,82.90
2017-10-02T07:25:01.739Z,80.90
2017-10-02T07:27:30.058Z,80.10
2017-10-02T07:29:57.611Z,80.10
2017-10-02T07:32:25.181Z,80.30
2017-10-02T07:34:52.734Z,81.10
2017-10-02T07:37:20.319Z,81.20
2017-10-02T07:40:05.104Z,81.00
2017-10-02T07:42:32.689Z,81.00
2017-10-02T07:45:02.527Z,81.60
2017-10-02T07:47:31.443Z,81.50
2017-10-02T07:49:59.070Z,82.40
2017-10-02T07:52:26.653Z,81.90
2017-10-02T07:54:54.223Z,81.60
2017-10-02T07:57:21.779Z,81.60
2017-10-02T07:59:49.362Z,82.40
2017-10-02T08:02:16.913Z,81.80
2017-10-02T08:04:44.517Z,81.10
2017-10-02T08:07:12.860Z,81.00
2017-10-02T08:09:40.422Z,80.90
2017-10-02T08:12:08.213Z,81.70
2017-10-02T08:14:35.911Z,81.50
2017-10-02T08:17:03.510Z,82.30
2017-10-02T08:19:31.350Z,81.90
2017-10-02T08:21:58.920Z,82.20
2017-10-02T08:24:26.487Z,82.10
2017-10-02T08:26:54.082Z,81.20
2017-10-02T08:29:22.410Z,81.30
2017-10-02T08:31:49.958Z,81.30
2017-10-02T08:34:17.581Z,82.00
2017-10-02T08:36:45.901Z,81.90
2017-10-02T08:39:13.653Z,81.80
2017-10-02T08:41:41.329Z,82.00
2017-10-02T08:44:10.212Z,82.80
2017-10-02T08:46:37.777Z,81.90
2017-10-02T08:49:05.332Z,81.10
2017-10-02T08:51:32.973Z,81.10
2017-10-02T08:54:00.535Z,80.80
2017-10-02T08:56:28.093Z,80.60
2017-10-02T08:58:55.655Z,80.10
2017-10-02T09:01:23.951Z,79.60
2017-10-02T09:03:51.560Z,79.30
2017-10-02T09:06:20.519Z,78.90
2017-10-02T09:08:48.218Z,78.40
2017-10-02T09:11:17.078Z,78.10
2017-10-02T09:13:45.279Z,78.10
2017-10-02T09:16:12.893Z,76.50
2017-10-02T09:18:41.331Z,77.00
2017-10-02T09:21:09.771Z,76.40
2017-10-02T09:23:37.973Z,76.40
2017-10-02T09:26:06.615Z,75.60
2017-10-02T09:28:34.528Z,75.50
2017-10-02T09:31:03.030Z,74.40
2017-10-02T09:33:32.302Z,74.40
2017-10-02T09:36:01.340Z,73.40
2017-10-02T09:38:29.193Z,73.30
2017-10-02T09:40:56.788Z,73.60
2017-10-02T09:43:24.388Z,73.60
2017-10-02T09:45:51.951Z,73.50
2017-10-02T09:48:19.569Z,73.70
2017-10-02T09:50:47.144Z,73.80
2017-10-02T09:53:14.682Z,73.30
2017-10-02T09:55:42.274Z,72.70
2017-10-02T09:58:09.829Z,72.60
2017-10-02T10:00:37.586Z,72.60
2017-10-02T10:03:05.159Z,72.90
2017-10-02T10:05:32.734Z,72.50
2017-10-02T10:08:00.278Z,72.30
2017-10-02T10:10:27.842Z,72.20
2017-10-02T10:12:55.430Z,72.30
2017-10-02T10:15:22.982Z,71.70
2017-10-02T10:17:50.527Z,71.80
2017-10-02T10:20:18.129Z,71.50
2017-10-02T10:22:46.480Z,72.10
2017-10-02T10:25:14.020Z,72.10
2017-10-02T10:27:41.598Z,71.50
2017-10-02T10:30:09.153Z,71.80
2017-10-02T10:32:36.730Z,71.70
2017-10-02T10:35:04.295Z,71.60
2017-10-02T10:37:32.640Z,71.20
2017-10-02T10:40:00.206Z,71.20
2017-10-02T10:42:27.757Z,70.60
2017-10-02T10:44:55.325Z,70.70
2017-10-02T10:47:22.876Z,69.50
2017-10-02T10:49:50.468Z,68.80
2017-10-02T10:52:18.038Z,69.40
2017-10-02T10:57:25.681Z,69.60
2017-10-02T10:59:54.043Z,69.00
2017-10-02T11:02:23.718Z,69.00
2017-10-02T11:04:52.193Z,67.70
2017-10-02T11:07:21.725Z,67.60
2017-10-02T11:09:49.839Z,67.60
2017-10-02T11:12:17.401Z,69.00
2017-10-02T11:14:46.147Z,68.90
2017-10-02T11:17:14.050Z,69.10
2017-10-02T11:19:41.951Z,69.90
2017-10-02T11:22:09.651Z,69.60
2017-10-02T11:24:46.159Z,68.80
2017-10-02T11:27:13.991Z,68.60
2017-10-02T11:29:42.770Z,69.30
2017-10-02T11:32:11.736Z,68.90
2017-10-02T11:34:40.360Z,68.30
2017-10-02T11:37:08.115Z,68.20
2017-10-02T11:39:35.657Z,67.40
2017-10-02T11:42:04.041Z,67.50
2017-10-02T11:44:32.481Z,68.00
2017-10-02T11:47:00.061Z,68.00
2017-10-02T11:49:28.413Z,68.60
2017-10-02T11:51:56.789Z,69.10
2017-10-02T11:54:24.338Z,69.10
2017-10-02T11:56:51.926Z,68.90
2017-10-02T11:59:20.241Z,67.90
2017-10-02T12:01:47.804Z,68.00
2017-10-02T12:04:15.520Z,67.50
2017-10-02T12:06:43.109Z,66.70
2017-10-02T12:09:11.491Z,66.70
2017-10-02T12:11:39.061Z,66.70
2017-10-02T12:14:06.627Z,66.70
2017-10-02T12:16:34.224Z,66.90
2017-10-02T12:19:01.821Z,66.60
2017-10-02T12:21:30.404Z,68.40
2017-10-02T12:23:59.022Z,68.40
2017-10-02T12:26:26.615Z,68.40
2017-10-02T12:28:57.474Z,69.10
2017-10-02T12:31:25.300Z,69.30
2017-10-02T12:33:52.854Z,70.30
2017-10-02T12:36:20.431Z,70.60
2017-10-02T12:38:47.971Z,70.10
2017-10-02T12:41:15.509Z,69.50
2017-10-02T12:43:43.071Z,70.40
2017-10-02T12:46:10.622Z,70.40
2017-10-02T12:48:38.952Z,68.50
2017-10-02T12:51:06.510Z,68.50
2017-10-02T12:53:34.070Z,68.40
2017-10-02T12:56:01.626Z,68.10
2017-10-02T12:58:29.189Z,69.00
2017-10-02T13:00:56.795Z,69.00
2017-10-02T13:03:25.105Z,70.00
2017-10-02T13:05:52.680Z,70.70
2017-10-02T13:08:20.214Z,69.80
2017-10-02T13:10:47.788Z,70.30
2017-10-02T13:13:15.374Z,71.10
2017-10-02T13:15:42.910Z,71.60
2017-10-02T13:18:10.479Z,72.30
2017-10-02T13:20:38.080Z,72.50
2017-10-02T13:23:06.416Z,72.70
2017-10-02T13:25:33.964Z,72.60
2017-10-02T13:28:01.545Z,72.60
2017-10-02T13:30:29.109Z,72.50
2017-10-02T13:32:56.675Z,72.20
2017-10-02T13:35:24.222Z,72.30
2017-10-02T13:37:51.838Z,71.80
2017-10-02T13:40:19.435Z,72.00
2017-10-02T13:42:47.005Z,72.20
2017-10-02T13:45:14.562Z,72.30
2017-10-02T13:47:42.119Z,72.90
2017-10-02T13:50:09.698Z,73.00
2017-10-02T13:52:37.266Z,73.20
2017-10-02T13:55:05.393Z,73.50
2017-10-02T13:57:32.952Z,73.30
2017-10-02T14:00:00.572Z,73.50
2017-10-02T14:02:28.935Z,73.40
2017-10-02T14:04:56.494Z,73.50
2017-10-02T14:07:24.050Z,73.60
2017-10-02T14:09:51.605Z,73.50
2017-10-02T14:12:19.320Z,74.10
2017-10-02T14:14:47.730Z,74.20
2017-10-02T14:17:15.511Z,74.20
2017-10-02T14:19:43.100Z,74.20
2017-10-02T14:22:10.675Z,75.20
2017-10-02T14:24:39.008Z,74.80
2017-10-02T14:27:06.578Z,74.70
2017-10-02T14:29:34.642Z,75.00
2017-10-02T14:32:02.196Z,74.90
2017-10-02T14:34:29.769Z,74.90
2017-10-02T14:36:57.312Z,74.80
2017-10-02T14:39:24.882Z,75.40
2017-10-02T14:41:52.436Z,75.10
2017-10-02T14:44:20.016Z,75.10
2017-10-02T14:46:47.598Z,75.20
2017-10-02T14:49:15.185Z,75.20
2017-10-02T14:51:43.525Z,75.50
2017-10-02T14:54:11.073Z,75.50
2017-10-02T14:56:38.715Z,75.50
2017-10-02T14:59:06.273Z,76.20
2017-10-02T15:01:33.827Z,76.10
2017-10-02T15:04:01.379Z,76.00
2017-10-02T15:06:28.940Z,76.50
2017-10-02T15:08:56.515Z,76.90
2017-10-02T15:11:24.079Z,77.10
2017-10-02T15:13:51.635Z,76.90
2017-10-02T15:16:19.213Z,77.10
2017-10-02T15:18:46.781Z,76.90
2017-10-02T15:21:14.336Z,76.70
2017-10-02T15:23:41.906Z,76.70
2017-10-02T15:26:09.476Z,77.10
2017-10-02T15:28:37.008Z,77.20
2017-10-02T15:31:04.582Z,77.60
2017-10-02T15:33:32.147Z,78.00
2017-10-02T15:35:59.687Z,78.60
2017-10-02T15:38:27.254Z,78.90
2017-10-02T15:40:54.801Z,79.70
2017-10-02T15:43:22.357Z,80.50
2017-10-02T15:45:49.943Z,81.10
2017-10-02T15:48:17.499Z,81.30
2017-10-02T15:50:45.064Z,81.70
2017-10-02T15:53:12.620Z,82.10
2017-10-02T15:55:40.190Z,82.40
2017-10-02T15:58:07.787Z,82.50
2017-10-02T16:00:36.137Z,82.90
2017-10-02T16:03:03.687Z,83.00
2017-10-02T16:05:31.246Z,83.60
2017-10-02T16:07:58.830Z,83.60
2017-10-02T16:10:27.224Z,83.10
2017-10-02T16:12:55.556Z,83.10
2017-10-02T16:15:23.113Z,83.10
2017-10-02T16:17:50.683Z,83.60
2017-10-02T16:20:18.273Z,83.60
2017-10-02T16:22:46.608Z,84.20
2017-10-02T16:25:14.208Z,84.20
2017-10-02T16:27:41.782Z,84.60
2017-10-02T16:30:10.100Z,84.80
2017-10-02T16:32:37.714Z,84.80
2017-10-02T16:35:05.295Z,84.70
2017-10-02T16:37:33.033Z,84.70
2017-10-02T16:40:01.359Z,85.10
2017-10-02T16:42:28.965Z,85.20
2017-10-02T16:44:56.554Z,85.00
2017-10-02T16:47:24.159Z,84.50
2017-10-02T16:49:51.699Z,85.00
2017-10-02T16:52:19.275Z,85.10
2017-10-02T16:54:46.858Z,85.30
2017-10-02T16:57:14.456Z,85.50
2017-10-02T16:59:42.047Z,85.50
2017-10-02T17:02:09.596Z,85.50
2017-10-02T17:04:37.290Z,85.60
2017-10-02T17:07:04.846Z,85.40
2017-10-02T17:09:32.432Z,85.60
2017-10-02T17:12:00.007Z,85.80
2017-10-02T17:14:28.343Z,86.50
2017-10-02T17:16:55.915Z,86.50
2017-10-02T17:19:23.518Z,87.20
2017-10-02T17:21:51.103Z,89.10
2017-10-02T17:24:18.655Z,89.50
2017-10-02T17:26:46.289Z,90.10
2017-10-02T17:29:13.863Z,90.40
2017-10-02T17:31:41.420Z,90.60
2017-10-02T17:34:09.031Z,90.80
2017-10-02T17:36:36.618Z,91.10
2017-10-02T17:45:46.382Z,91.50
2017-10-02T17:48:14.870Z,91.90
2017-10-02T17:50:42.419Z,92.00
2017-10-02T17:53:10.250Z,91.80
2017-10-02T17:55:40.181Z,91.90
2017-10-02T17:58:08.837Z,92.00
2017-10-02T18:00:36.428Z,92.10
2017-10-02T18:03:03.993Z,92.20
2017-10-02T18:05:31.673Z,92.40
2017-10-02T18:08:00.070Z,92.40
2017-10-02T18:10:28.002Z,92.30
2017-10-02T18:12:55.590Z,92.30
2017-10-02T18:15:23.174Z,92.40
2017-10-02T18:17:53.477Z,92.40
2017-10-02T18:20:22.214Z,92.60
2017-10-02T18:22:51.387Z,92.60
2017-10-02T18:25:23.983Z,92.50
2017-10-02T18:27:51.800Z,92.50
2017-10-02T18:30:19.780Z,92.30
2017-10-02T18:32:48.021Z,92.20
2017-10-02T18:35:16.292Z,92.20
2017-10-02T18:37:50.563Z,92.40
2017-10-02T18:40:19.833Z,92.50
2017-10-02T18:42:51.332Z,92.50
2017-10-02T18:45:29.257Z,92.50
2017-10-02T18:47:57.089Z,92.30
2017-10-02T18:50:25.107Z,92.40
2017-10-02T18:52:59.199Z,92.30
2017-10-02T18:55:27.105Z,92.30
2017-10-02T18:57:56.127Z,92.40
2017-10-02T19:00:24.416Z,92.40
2017-10-02T19:02:55.963Z,92.00
2017-10-02T19:05:24.461Z,91.90
2017-10-02T19:07:53.276Z,91.80
2017-10-02T19:10:22.552Z,91.80
2017-10-02T19:12:51.250Z,91.60
2017-10-02T19:15:18.842Z,91.20
2017-10-02T19:17:48.747Z,91.20
2017-10-02T19:22:58.488Z,90.70
2017-10-02T19:25:26.299Z,90.40
2017-10-02T19:27:54.140Z,90.20
2017-10-02T19:30:25.190Z,90.30
2017-10-02T19:32:56.498Z,90.10
2017-10-02T19:35:24.945Z,90.10
2017-10-02T19:37:54.141Z,90.30
2017-10-02T19:40:28.307Z,90.20
2017-10-02T19:42:56.685Z,90.10
2017-10-02T19:45:25.013Z,90.00
2017-10-02T19:47:54.422Z,90.00
2017-10-02T19:50:24.055Z,90.10
2017-10-02T19:52:54.114Z,90.30
2017-10-02T19:55:22.855Z,90.20
2017-10-02T20:00:32.503Z,90.10
2017-10-02T20:03:00.559Z,90.00
2017-10-02T20:05:28.583Z,90.20
2017-10-02T20:07:56.902Z,90.00
2017-10-02T20:10:24.582Z,90.10
2017-10-02T20:12:52.647Z,90.10
2017-10-02T20:15:20.218Z,89.70
2017-10-02T20:17:47.993Z,89.60
2017-10-02T20:20:15.837Z,89.20
2017-10-02T20:22:43.596Z,89.40
2017-10-02T20:25:11.201Z,89.80
2017-10-02T20:27:39.534Z,89.70
2017-10-02T20:30:08.831Z,89.60
2017-10-02T20:32:38.339Z,89.50
2017-10-02T20:35:06.182Z,89.00
2017-10-02T20:37:35.321Z,88.40
2017-10-02T20:40:03.365Z,88.30
2017-10-02T20:42:30.919Z,88.30
2017-10-02T20:44:58.638Z,88.20
2017-10-02T20:47:27.303Z,88.00
2017-10-02T20:49:55.790Z,88.30
2017-10-02T20:52:26.578Z,88.00
2017-10-02T20:54:56.716Z,87.50
2017-10-02T20:57:25.107Z,87.70
2017-10-02T20:59:53.005Z,87.50
2017-10-02T21:02:20.580Z,86.90
2017-10-02T21:04:48.504Z,87.00
2017-10-02T21:07:16.327Z,86.80
2017-10-02T21:09:45.460Z,86.80
2017-10-02T21:12:14.771Z,87.30
2017-10-02T21:14:42.527Z,86.80
2017-10-02T21:17:10.100Z,86.40
2017-10-02T21:19:38.555Z,86.50
2017-10-02T21:22:08.822Z,87.00
2017-10-02T21:24:37.251Z,86.70
2017-10-02T21:27:05.651Z,86.80
2017-10-02T21:29:33.879Z,86.60
2017-10-02T21:32:02.321Z,86.60
2017-10-02T21:34:29.890Z,86.60
2017-10-02T21:36:57.666Z,86.60
2017-10-02T21:39:26.264Z,86.20
2017-10-02T21:41:54.336Z,86.00
2017-10-02T21:44:21.978Z,85.60
2017-10-02T21:46:49.713Z,85.80
2017-10-02T21:49:17.912Z,85.80
2017-10-02T21:51:45.876Z,85.60
2017-10-02T21:54:13.678Z,85.50
2017-10-02T21:56:42.111Z,84.80
2017-10-02T21:59:09.712Z,84.80
2017-10-02T22:01:37.274Z,85.00
2017-10-02T22:04:04.876Z,85.20
2017-10-02T22:06:32.450Z,85.00
2017-10-02T22:09:00.778Z,85.30
2017-10-02T22:11:28.344Z,85.30
2017-10-02T22:13:55.890Z,85.50
2017-10-02T22:16:23.471Z,84.90
2017-10-02T22:21:58.409Z,85.10
2017-10-02T22:24:25.994Z,85.10
2017-10-02T22:26:53.578Z,85.40
2017-10-02T22:29:21.116Z,85.60
2017-10-02T22:31:48.718Z,85.70
2017-10-02T22:34:17.045Z,85.90
2017-10-02T22:36:44.605Z,85.90
2017-10-02T22:39:12.164Z,85.70
2017-10-02T22:41:39.757Z,85.90
2017-10-02T22:44:07.336Z,85.80
2017-10-02T22:46:35.710Z,85.10
2017-10-02T22:49:03.284Z,85.10
2017-10-02T22:51:31.610Z,86.30
2017-10-02T22:53:59.197Z,86.30
2017-10-02T22:56:26.763Z,86.90
2017-10-02T22:58:54.346Z,87.60
2017-10-02T23:01:22.711Z,87.80
2017-10-02T23:03:51.040Z,88.00
2017-10-02T23:06:18.628Z,88.00
2017-10-02T23:08:46.177Z,87.80
2017-10-02T23:11:13.746Z,87.90
2017-10-02T23:13:41.331Z,88.80
2017-10-02T23:16:09.670Z,90.20
2017-10-02T23:18:37.249Z,90.20
2017-10-02T23:21:04.833Z,90.40
2017-10-02T23:23:33.151Z,90.50
2017-10-02T23:26:00.718Z,90.80
2017-10-02T23:28:28.249Z,90.50
2017-10-02T23:30:55.807Z,90.50
2017-10-02T23:33:23.389Z,90.80
2017-10-02T23:35:50.957Z,90.90
2017-10-02T23:38:18.526Z,91.00
2017-10-02T23:40:46.121Z,91.60
2017-10-02T23:43:14.456Z,91.30
2017-10-02T23:45:42.010Z,91.30
2017-10-02T23:48:09.563Z,91.50
2017-10-02T23:50:37.121Z,91.50
2017-10-02T23:53:04.721Z,91.70
2017-10-02T23:55:32.296Z,91.80
2017-10-02T23:57:59.837Z,91.60
